sensor_id;sensor_type;location;lat;lon;timestamp;pressure;altitude;pressure_sealevel;temperature;humidity
34482;BME280;20720;48.886;9.388;2023-04-03T00:00:56;99148.75;;;6.60;100.00
34482;BME280;20720;48.886;9.388;2023-04-03T00:03:21;99151.22;;;6.18;100.00
34482;BME280;20720;48.886;9.388;2023-04-03T00:05:46;99149.97;;;6.48;100.00
34482;BME280;20720;48.886;9.388;2023-04-03T00:08:12;99146.88;;;5.74;100.00
34482;BME280;20720;48.886;9.388;2023-04-03T00:10:37;99154.38;;;5.15;100.00
34482;BME280;20720;48.886;9.388;2023-04-03T00:13:04;99150.06;;;5.68;100.00
34482;BME280;20720;48.886;9.388;2023-04-03T00:15:30;99146.16;;;5.99;100.00
34482;BME280;20720;48.886;9.388;2023-04-03T00:17:55;99147.97;;;5.54;100.00
34482;BME280;20720;48.886;9.388;2023-04-03T00:20:20;99155.84;;;4.90;100.00
34482;BME280;20720;48.886;9.388;2023-04-03T00:22:46;99155.69;;;4.92;100.00
34482;BME280;20720;48.886;9.388;2023-04-03T00:25:11;99150.19;;;5.49;100.00
34482;BME280;20720;48.886;9.388;2023-04-03T00:27:37;99150.69;;;5.08;100.00
34482;BME280;20720;48.886;9.388;2023-04-03T00:30:04;99150.59;;;5.27;100.00
34482;BME280;20720;48.886;9.388;2023-04-03T00:32:30;99146.16;;;5.10;100.00
34482;BME280;20720;48.886;9.388;2023-04-03T00:34:55;99137.75;;;4.89;100.00
34482;BME280;20720;48.886;9.388;2023-04-03T00:37:20;99140.19;;;5.27;100.00
34482;BME280;20720;48.886;9.388;2023-04-03T00:39:46;99148.75;;;5.10;100.00
34482;BME280;20720;48.886;9.388;2023-04-03T00:42:11;99149.34;;;5.31;100.00
34482;BME280;20720;48.886;9.388;2023-04-03T00:47:03;99150.50;;;4.92;100.00
34482;BME280;20720;48.886;9.388;2023-04-03T00:49:30;99149.44;;;5.39;100.00
34482;BME280;20720;48.886;9.388;2023-04-03T00:51:57;99148.19;;;5.16;100.00
34482;BME280;20720;48.886;9.388;2023-04-03T00:54:23;99153.41;;;5.16;100.00
34482;BME280;20720;48.886;9.388;2023-04-03T00:56:51;99147.78;;;5.38;100.00
34482;BME280;20720;48.886;9.388;2023-04-03T00:59:27;99142.09;;;5.25;100.00
34482;BME280;20720;48.886;9.388;2023-04-03T01:01:55;99151.78;;;4.68;100.00
34482;BME280;20720;48.886;9.388;2023-04-03T01:04:37;99146.25;;;5.18;100.00
34482;BME280;20720;48.886;9.388;2023-04-03T01:07:18;99148.94;;;4.62;100.00
34482;BME280;20720;48.886;9.388;2023-04-03T01:09:46;99148.84;;;4.54;100.00
34482;BME280;20720;48.886;9.388;2023-04-03T01:12:22;99156.25;;;4.86;100.00
34482;BME280;20720;48.886;9.388;2023-04-03T01:14:53;99151.69;;;4.60;100.00
34482;BME280;20720;48.886;9.388;2023-04-03T01:17:44;99154.22;;;4.79;100.00
34482;BME280;20720;48.886;9.388;2023-04-03T01:22:59;99154.84;;;4.54;100.00
34482;BME280;20720;48.886;9.388;2023-04-03T01:25:27;99148.63;;;4.74;100.00
34482;BME280;20720;48.886;9.388;2023-04-03T01:27:52;99156.59;;;4.73;100.00
34482;BME280;20720;48.886;9.388;2023-04-03T01:30:20;99154.03;;;4.91;100.00
34482;BME280;20720;48.886;9.388;2023-04-03T01:32:46;99155.28;;;4.50;100.00
34482;BME280;20720;48.886;9.388;2023-04-03T01:35:12;99150.47;;;4.45;100.00
34482;BME280;20720;48.886;9.388;2023-04-03T01:37:37;99153.34;;;4.61;100.00
34482;BME280;20720;48.886;9.388;2023-04-03T01:40:03;99152.16;;;4.83;100.00
34482;BME280;20720;48.886;9.388;2023-04-03T01:42:28;99153.38;;;4.42;100.00
34482;BME280;20720;48.886;9.388;2023-04-03T01:44:54;99156.72;;;4.71;100.00
34482;BME280;20720;48.886;9.388;2023-04-03T01:47:19;99161.47;;;4.86;100.00
34482;BME280;20720;48.886;9.388;2023-04-03T01:49:45;99165.16;;;5.20;100.00
34482;BME280;20720;48.886;9.388;2023-04-03T01:52:10;99171.88;;;5.67;100.00
34482;BME280;20720;48.886;9.388;2023-04-03T01:54:36;99171.63;;;5.16;100.00
34482;BME280;20720;48.886;9.388;2023-04-03T01:57:01;99170.28;;;5.56;100.00
34482;BME280;20720;48.886;9.388;2023-04-03T01:59:26;99168.28;;;5.95;100.00
34482;BME280;20720;48.886;9.388;2023-04-03T02:01:51;99166.38;;;5.70;100.00
34482;BME280;20720;48.886;9.388;2023-04-03T02:04:17;99169.66;;;5.54;100.00
34482;BME280;20720;48.886;9.388;2023-04-03T02:06:42;99169.66;;;5.72;100.00
34482;BME280;20720;48.886;9.388;2023-04-03T02:09:08;99167.78;;;5.92;100.00
34482;BME280;20720;48.886;9.388;2023-04-03T02:11:33;99165.34;;;5.36;100.00
34482;BME280;20720;48.886;9.388;2023-04-03T02:13:58;99167.25;;;5.88;100.00
34482;BME280;20720;48.886;9.388;2023-04-03T02:16:24;99163.50;;;5.91;100.00
34482;BME280;20720;48.886;9.388;2023-04-03T02:18:49;99171.25;;;6.00;100.00
34482;BME280;20720;48.886;9.388;2023-04-03T02:21:15;99163.59;;;6.16;100.00
34482;BME280;20720;48.886;9.388;2023-04-03T02:23:40;99169.34;;;5.85;100.00
34482;BME280;20720;48.886;9.388;2023-04-03T02:26:11;99164.78;;;6.04;100.00
34482;BME280;20720;48.886;9.388;2023-04-03T02:28:37;99167.09;;;6.07;100.00
34482;BME280;20720;48.886;9.388;2023-04-03T02:31:03;99169.72;;;5.45;100.00
34482;BME280;20720;48.886;9.388;2023-04-03T02:33:29;99166.78;;;5.48;100.00
34482;BME280;20720;48.886;9.388;2023-04-03T02:35:56;99165.41;;;5.26;100.00
34482;BME280;20720;48.886;9.388;2023-04-03T02:38:22;99180.28;;;5.61;100.00
34482;BME280;20720;48.886;9.388;2023-04-03T02:40:47;99170.59;;;6.16;100.00
34482;BME280;20720;48.886;9.388;2023-04-03T02:43:13;99170.41;;;5.82;100.00
34482;BME280;20720;48.886;9.388;2023-04-03T02:45:38;99171.22;;;5.65;100.00
34482;BME280;20720;48.886;9.388;2023-04-03T02:48:04;99175.97;;;5.52;100.00
34482;BME280;20720;48.886;9.388;2023-04-03T02:50:29;99175.53;;;5.74;100.00
34482;BME280;20720;48.886;9.388;2023-04-03T02:52:54;99180.97;;;5.90;100.00
34482;BME280;20720;48.886;9.388;2023-04-03T02:55:20;99187.31;;;5.78;100.00
34482;BME280;20720;48.886;9.388;2023-04-03T02:57:45;99175.81;;;6.16;100.00
34482;BME280;20720;48.886;9.388;2023-04-03T03:00:10;99176.38;;;5.30;100.00
34482;BME280;20720;48.886;9.388;2023-04-03T03:02:36;99179.59;;;6.21;100.00
34482;BME280;20720;48.886;9.388;2023-04-03T03:05:01;99179.25;;;5.54;100.00
34482;BME280;20720;48.886;9.388;2023-04-03T03:07:27;99179.63;;;5.86;100.00
34482;BME280;20720;48.886;9.388;2023-04-03T03:09:52;99187.97;;;5.62;100.00
34482;BME280;20720;48.886;9.388;2023-04-03T03:12:17;99190.56;;;5.45;100.00
34482;BME280;20720;48.886;9.388;2023-04-03T03:14:47;99177.00;;;5.59;100.00
34482;BME280;20720;48.886;9.388;2023-04-03T03:17:12;99185.03;;;5.21;100.00
34482;BME280;20720;48.886;9.388;2023-04-03T03:19:37;99179.34;;;5.80;100.00
34482;BME280;20720;48.886;9.388;2023-04-03T03:22:02;99173.84;;;5.83;100.00
34482;BME280;20720;48.886;9.388;2023-04-03T03:24:28;99169.59;;;5.37;100.00
34482;BME280;20720;48.886;9.388;2023-04-03T03:26:53;99176.41;;;5.20;100.00
34482;BME280;20720;48.886;9.388;2023-04-03T03:29:19;99179.56;;;5.41;100.00
34482;BME280;20720;48.886;9.388;2023-04-03T03:31:44;99168.91;;;5.62;100.00
34482;BME280;20720;48.886;9.388;2023-04-03T03:34:09;99174.19;;;5.70;100.00
34482;BME280;20720;48.886;9.388;2023-04-03T03:36:35;99173.91;;;5.73;100.00
34482;BME280;20720;48.886;9.388;2023-04-03T03:39:00;99177.91;;;5.50;100.00
34482;BME280;20720;48.886;9.388;2023-04-03T03:41:25;99164.66;;;5.61;100.00
34482;BME280;20720;48.886;9.388;2023-04-03T03:43:51;99174.81;;;5.82;100.00
34482;BME280;20720;48.886;9.388;2023-04-03T03:46:16;99180.47;;;5.77;100.00
34482;BME280;20720;48.886;9.388;2023-04-03T03:48:41;99172.91;;;6.01;100.00
34482;BME280;20720;48.886;9.388;2023-04-03T03:51:07;99173.81;;;5.92;100.00
34482;BME280;20720;48.886;9.388;2023-04-03T03:53:32;99175.25;;;5.77;100.00
34482;BME280;20720;48.886;9.388;2023-04-03T03:55:57;99179.53;;;6.13;100.00
34482;BME280;20720;48.886;9.388;2023-04-03T03:58:23;99172.84;;;5.93;100.00
34482;BME280;20720;48.886;9.388;2023-04-03T04:00:48;99172.06;;;5.83;100.00
34482;BME280;20720;48.886;9.388;2023-04-03T04:03:13;99178.56;;;6.14;100.00
34482;BME280;20720;48.886;9.388;2023-04-03T04:05:38;99169.59;;;6.34;100.00
34482;BME280;20720;48.886;9.388;2023-04-03T04:08:04;99171.06;;;6.11;100.00
34482;BME280;20720;48.886;9.388;2023-04-03T04:10:29;99180.00;;;6.09;100.00
34482;BME280;20720;48.886;9.388;2023-04-03T04:12:55;99182.31;;;5.94;100.00
34482;BME280;20720;48.886;9.388;2023-04-03T04:15:20;99175.47;;;6.36;98.89
34482;BME280;20720;48.886;9.388;2023-04-03T04:17:46;99180.66;;;5.93;98.66
34482;BME280;20720;48.886;9.388;2023-04-03T04:20:12;99180.63;;;6.28;99.62
34482;BME280;20720;48.886;9.388;2023-04-03T04:22:37;99181.22;;;5.69;100.00
34482;BME280;20720;48.886;9.388;2023-04-03T04:25:04;99177.16;;;6.63;100.00
34482;BME280;20720;48.886;9.388;2023-04-03T04:27:29;99179.75;;;6.02;100.00
34482;BME280;20720;48.886;9.388;2023-04-03T04:29:55;99178.78;;;6.21;100.00
34482;BME280;20720;48.886;9.388;2023-04-03T04:32:20;99173.66;;;6.11;100.00
34482;BME280;20720;48.886;9.388;2023-04-03T04:34:45;99179.59;;;6.21;100.00
34482;BME280;20720;48.886;9.388;2023-04-03T04:37:10;99184.00;;;5.86;100.00
34482;BME280;20720;48.886;9.388;2023-04-03T04:39:36;99186.56;;;6.13;100.00
34482;BME280;20720;48.886;9.388;2023-04-03T04:42:01;99179.06;;;6.35;100.00
34482;BME280;20720;48.886;9.388;2023-04-03T04:44:27;99179.84;;;6.53;100.00
34482;BME280;20720;48.886;9.388;2023-04-03T04:46:52;99185.41;;;6.15;100.00
34482;BME280;20720;48.886;9.388;2023-04-03T04:49:17;99185.13;;;6.18;100.00
34482;BME280;20720;48.886;9.388;2023-04-03T04:51:43;99189.59;;;6.43;100.00
34482;BME280;20720;48.886;9.388;2023-04-03T04:54:08;99185.91;;;6.54;100.00
34482;BME280;20720;48.886;9.388;2023-04-03T04:56:33;99197.09;;;6.29;100.00
34482;BME280;20720;48.886;9.388;2023-04-03T04:58:58;99194.06;;;5.98;100.00
34482;BME280;20720;48.886;9.388;2023-04-03T05:01:24;99196.44;;;5.47;100.00
34482;BME280;20720;48.886;9.388;2023-04-03T05:03:49;99191.38;;;5.90;100.00
34482;BME280;20720;48.886;9.388;2023-04-03T05:06:14;99188.66;;;5.82;100.00
34482;BME280;20720;48.886;9.388;2023-04-03T05:08:40;99190.75;;;5.24;100.00
34482;BME280;20720;48.886;9.388;2023-04-03T05:11:05;99195.69;;;4.91;100.00
34482;BME280;20720;48.886;9.388;2023-04-03T05:13:30;99195.31;;;5.22;100.00
34482;BME280;20720;48.886;9.388;2023-04-03T05:15:55;99202.28;;;5.49;100.00
34482;BME280;20720;48.886;9.388;2023-04-03T05:18:21;99203.44;;;5.46;100.00
34482;BME280;20720;48.886;9.388;2023-04-03T05:20:48;99205.84;;;4.94;100.00
34482;BME280;20720;48.886;9.388;2023-04-03T05:23:13;99209.78;;;5.34;100.00
34482;BME280;20720;48.886;9.388;2023-04-03T05:25:39;99201.53;;;5.39;100.00
34482;BME280;20720;48.886;9.388;2023-04-03T05:28:04;99205.31;;;5.54;100.00
34482;BME280;20720;48.886;9.388;2023-04-03T05:30:30;99205.81;;;5.30;100.00
34482;BME280;20720;48.886;9.388;2023-04-03T05:32:55;99211.25;;;5.10;100.00
34482;BME280;20720;48.886;9.388;2023-04-03T05:35:20;99207.47;;;5.31;100.00
34482;BME280;20720;48.886;9.388;2023-04-03T05:37:46;99214.94;;;5.44;100.00
34482;BME280;20720;48.886;9.388;2023-04-03T05:40:11;99216.34;;;5.02;100.00
34482;BME280;20720;48.886;9.388;2023-04-03T05:42:36;99210.03;;;5.04;100.00
34482;BME280;20720;48.886;9.388;2023-04-03T05:45:02;99215.22;;;5.14;100.00
34482;BME280;20720;48.886;9.388;2023-04-03T05:47:27;99211.44;;;6.07;100.00
34482;BME280;20720;48.886;9.388;2023-04-03T05:49:53;99218.06;;;5.84;100.00
34482;BME280;20720;48.886;9.388;2023-04-03T05:52:28;99217.59;;;5.34;100.00
34482;BME280;20720;48.886;9.388;2023-04-03T05:54:55;99218.50;;;5.97;100.00
34482;BME280;20720;48.886;9.388;2023-04-03T05:57:20;99226.84;;;4.83;100.00
34482;BME280;20720;48.886;9.388;2023-04-03T05:59:46;99217.53;;;4.70;100.00
34482;BME280;20720;48.886;9.388;2023-04-03T06:02:14;99227.72;;;5.10;100.00
34482;BME280;20720;48.886;9.388;2023-04-03T06:04:40;99227.94;;;5.53;100.00
34482;BME280;20720;48.886;9.388;2023-04-03T06:07:06;99227.41;;;5.77;100.00
34482;BME280;20720;48.886;9.388;2023-04-03T06:09:33;99231.22;;;5.19;100.00
34482;BME280;20720;48.886;9.388;2023-04-03T06:11:58;99232.31;;;4.79;100.00
34482;BME280;20720;48.886;9.388;2023-04-03T06:14:25;99228.47;;;5.57;100.00
34482;BME280;20720;48.886;9.388;2023-04-03T06:16:51;99235.88;;;5.25;100.00
34482;BME280;20720;48.886;9.388;2023-04-03T06:19:16;99228.75;;;5.27;100.00
34482;BME280;20720;48.886;9.388;2023-04-03T06:21:42;99233.84;;;5.19;100.00
34482;BME280;20720;48.886;9.388;2023-04-03T06:24:08;99237.63;;;4.88;100.00
34482;BME280;20720;48.886;9.388;2023-04-03T06:26:34;99241.78;;;4.81;100.00
34482;BME280;20720;48.886;9.388;2023-04-03T06:29:00;99242.91;;;5.15;100.00
34482;BME280;20720;48.886;9.388;2023-04-03T06:31:25;99253.25;;;4.88;100.00
34482;BME280;20720;48.886;9.388;2023-04-03T06:33:51;99240.06;;;4.99;100.00
34482;BME280;20720;48.886;9.388;2023-04-03T06:36:18;99248.44;;;5.39;100.00
34482;BME280;20720;48.886;9.388;2023-04-03T06:38:45;99249.41;;;5.01;100.00
34482;BME280;20720;48.886;9.388;2023-04-03T06:41:10;99246.84;;;5.19;100.00
34482;BME280;20720;48.886;9.388;2023-04-03T06:43:36;99246.16;;;5.53;100.00
34482;BME280;20720;48.886;9.388;2023-04-03T06:46:01;99264.78;;;5.58;100.00
34482;BME280;20720;48.886;9.388;2023-04-03T06:48:26;99253.75;;;5.74;100.00
34482;BME280;20720;48.886;9.388;2023-04-03T06:50:52;99263.06;;;5.77;100.00
34482;BME280;20720;48.886;9.388;2023-04-03T06:53:18;99260.63;;;5.75;100.00
34482;BME280;20720;48.886;9.388;2023-04-03T06:55:43;99261.19;;;5.96;100.00
34482;BME280;20720;48.886;9.388;2023-04-03T06:58:08;99262.84;;;6.32;100.00
34482;BME280;20720;48.886;9.388;2023-04-03T07:00:34;99265.22;;;5.81;100.00
34482;BME280;20720;48.886;9.388;2023-04-03T07:02:59;99266.75;;;6.11;100.00
34482;BME280;20720;48.886;9.388;2023-04-03T07:05:25;99267.69;;;5.92;100.00
34482;BME280;20720;48.886;9.388;2023-04-03T07:07:51;99267.41;;;6.65;100.00
34482;BME280;20720;48.886;9.388;2023-04-03T07:10:16;99270.66;;;5.97;100.00
34482;BME280;20720;48.886;9.388;2023-04-03T07:12:42;99270.88;;;5.86;100.00
34482;BME280;20720;48.886;9.388;2023-04-03T07:15:07;99266.63;;;5.75;100.00
34482;BME280;20720;48.886;9.388;2023-04-03T07:17:33;99273.75;;;5.83;100.00
34482;BME280;20720;48.886;9.388;2023-04-03T07:19:59;99274.09;;;6.15;100.00
34482;BME280;20720;48.886;9.388;2023-04-03T07:22:24;99277.94;;;6.38;100.00
34482;BME280;20720;48.886;9.388;2023-04-03T07:24:49;99279.03;;;6.18;100.00
34482;BME280;20720;48.886;9.388;2023-04-03T07:27:15;99275.19;;;6.22;100.00
34482;BME280;20720;48.886;9.388;2023-04-03T07:29:41;99290.69;;;6.41;100.00
34482;BME280;20720;48.886;9.388;2023-04-03T07:32:06;99282.41;;;7.07;99.08
34482;BME280;20720;48.886;9.388;2023-04-03T07:34:32;99295.09;;;6.58;100.00
34482;BME280;20720;48.886;9.388;2023-04-03T07:36:57;99285.16;;;6.44;100.00
34482;BME280;20720;48.886;9.388;2023-04-03T07:39:23;99287.81;;;7.39;91.63
34482;BME280;20720;48.886;9.388;2023-04-03T07:41:49;99288.84;;;7.20;95.92
34482;BME280;20720;48.886;9.388;2023-04-03T07:44:16;99294.06;;;6.95;96.01
34482;BME280;20720;48.886;9.388;2023-04-03T07:46:42;99298.84;;;6.82;96.39
34482;BME280;20720;48.886;9.388;2023-04-03T07:49:07;99302.56;;;7.74;89.68
34482;BME280;20720;48.886;9.388;2023-04-03T07:51:33;99287.88;;;8.38;91.10
34482;BME280;20720;48.886;9.388;2023-04-03T07:53:58;99297.56;;;9.02;88.09
34482;BME280;20720;48.886;9.388;2023-04-03T07:56:23;99297.84;;;8.35;88.06
34482;BME280;20720;48.886;9.388;2023-04-03T07:58:50;99310.03;;;7.69;90.73
34482;BME280;20720;48.886;9.388;2023-04-03T08:01:15;99311.28;;;7.31;92.56
34482;BME280;20720;48.886;9.388;2023-04-03T08:03:40;99313.22;;;7.29;91.41
34482;BME280;20720;48.886;9.388;2023-04-03T08:06:07;99318.94;;;7.24;92.76
34482;BME280;20720;48.886;9.388;2023-04-03T08:08:33;99312.75;;;6.82;97.86
34482;BME280;20720;48.886;9.388;2023-04-03T08:11:00;99319.09;;;7.23;97.45
34482;BME280;20720;48.886;9.388;2023-04-03T08:13:25;99318.88;;;7.68;91.53
34482;BME280;20720;48.886;9.388;2023-04-03T08:15:51;99315.53;;;7.57;93.60
34482;BME280;20720;48.886;9.388;2023-04-03T08:18:17;99323.03;;;6.84;97.00
34482;BME280;20720;48.886;9.388;2023-04-03T08:20:44;99317.25;;;7.15;95.45
34482;BME280;20720;48.886;9.388;2023-04-03T08:23:10;99316.88;;;7.61;95.15
34482;BME280;20720;48.886;9.388;2023-04-03T08:25:42;99315.25;;;8.10;89.98
34482;BME280;20720;48.886;9.388;2023-04-03T08:28:09;99319.53;;;8.11;91.50
34482;BME280;20720;48.886;9.388;2023-04-03T08:30:35;99318.50;;;9.34;82.71
34482;BME280;20720;48.886;9.388;2023-04-03T08:33:01;99314.06;;;8.38;83.04
34482;BME280;20720;48.886;9.388;2023-04-03T08:35:27;99320.34;;;8.94;82.50
34482;BME280;20720;48.886;9.388;2023-04-03T08:37:52;99314.13;;;9.74;78.16
34482;BME280;20720;48.886;9.388;2023-04-03T08:40:18;99314.44;;;9.16;80.22
34482;BME280;20720;48.886;9.388;2023-04-03T08:45:50;99308.69;;;10.22;80.52
34482;BME280;20720;48.886;9.388;2023-04-03T08:48:20;99320.31;;;8.62;79.60
34482;BME280;20720;48.886;9.388;2023-04-03T08:51:00;99322.28;;;8.02;83.36
34482;BME280;20720;48.886;9.388;2023-04-03T08:53:29;99322.75;;;9.43;82.18
34482;BME280;20720;48.886;9.388;2023-04-03T08:55:58;99326.72;;;8.83;80.72
34482;BME280;20720;48.886;9.388;2023-04-03T08:58:59;99322.63;;;9.29;77.87
34482;BME280;20720;48.886;9.388;2023-04-03T09:01:38;99327.16;;;9.59;77.19
34482;BME280;20720;48.886;9.388;2023-04-03T09:04:13;99325.78;;;10.71;70.82
34482;BME280;20720;48.886;9.388;2023-04-03T09:06:39;99329.81;;;9.27;76.61
34482;BME280;20720;48.886;9.388;2023-04-03T09:09:35;99325.41;;;8.55;79.75
34482;BME280;20720;48.886;9.388;2023-04-03T09:12:15;99336.31;;;8.42;84.30
34482;BME280;20720;48.886;9.388;2023-04-03T09:14:49;99328.19;;;9.89;78.13
34482;BME280;20720;48.886;9.388;2023-04-03T09:20:19;99337.88;;;7.52;85.24
34482;BME280;20720;48.886;9.388;2023-04-03T09:22:50;99341.34;;;7.52;91.01
34482;BME280;20720;48.886;9.388;2023-04-03T09:25:27;99327.75;;;7.83;84.96
34482;BME280;20720;48.886;9.388;2023-04-03T09:27:59;99333.59;;;7.77;87.11
34482;BME280;20720;48.886;9.388;2023-04-03T09:30:25;99330.16;;;8.18;83.81
34482;BME280;20720;48.886;9.388;2023-04-03T09:32:53;99327.00;;;8.40;84.31
34482;BME280;20720;48.886;9.388;2023-04-03T09:35:24;99330.84;;;8.20;83.83
34482;BME280;20720;48.886;9.388;2023-04-03T09:37:51;99323.69;;;10.05;78.64
34482;BME280;20720;48.886;9.388;2023-04-03T09:42:53;99318.25;;;8.15;81.30
34482;BME280;20720;48.886;9.388;2023-04-03T09:45:26;99319.03;;;8.90;79.71
34482;BME280;20720;48.886;9.388;2023-04-03T09:55:52;99326.38;;;7.37;91.21
34482;BME280;20720;48.886;9.388;2023-04-03T09:58:29;99322.97;;;8.78;81.26
34482;BME280;20720;48.886;9.388;2023-04-03T10:00:57;99316.16;;;10.10;79.24
34482;BME280;20720;48.886;9.388;2023-04-03T10:03:28;99316.28;;;9.70;80.36
34482;BME280;20720;48.886;9.388;2023-04-03T10:05:54;99322.88;;;8.29;78.52
34482;BME280;20720;48.886;9.388;2023-04-03T10:11:10;99314.56;;;7.92;79.99
34482;BME280;20720;48.886;9.388;2023-04-03T10:13:36;99316.22;;;8.01;81.15
34482;BME280;20720;48.886;9.388;2023-04-03T10:16:17;99306.72;;;9.85;75.52
34482;BME280;20720;48.886;9.388;2023-04-03T10:18:56;99316.97;;;8.27;80.82
34482;BME280;20720;48.886;9.388;2023-04-03T10:24:21;99307.53;;;8.42;74.39
34482;BME280;20720;48.886;9.388;2023-04-03T10:48:44;99295.28;;;8.59;70.30
34482;BME280;20720;48.886;9.388;2023-04-03T10:51:41;99294.56;;;9.37;73.93
34482;BME280;20720;48.886;9.388;2023-04-03T10:59:26;99305.38;;;7.88;77.41
34482;BME280;20720;48.886;9.388;2023-04-03T11:01:56;99314.69;;;7.49;78.03
34482;BME280;20720;48.886;9.388;2023-04-03T11:04:22;99314.94;;;8.55;75.71
34482;BME280;20720;48.886;9.388;2023-04-03T11:06:56;99314.38;;;7.94;79.69
34482;BME280;20720;48.886;9.388;2023-04-03T11:09:26;99309.81;;;8.37;75.97
34482;BME280;20720;48.886;9.388;2023-04-03T11:12:01;99320.03;;;7.73;76.09
34482;BME280;20720;48.886;9.388;2023-04-03T11:14:35;99305.94;;;8.08;79.23
34482;BME280;20720;48.886;9.388;2023-04-03T11:17:24;99300.94;;;7.47;75.98
34482;BME280;20720;48.886;9.388;2023-04-03T11:22:39;99297.53;;;9.26;74.03
34482;BME280;20720;48.886;9.388;2023-04-03T11:30:42;99302.66;;;8.80;77.21
34482;BME280;20720;48.886;9.388;2023-04-03T11:36:12;99299.22;;;8.87;80.04
34482;BME280;20720;48.886;9.388;2023-04-03T11:38:46;99308.75;;;8.22;76.30
34482;BME280;20720;48.886;9.388;2023-04-03T11:41:13;99303.19;;;8.17;76.20
34482;BME280;20720;48.886;9.388;2023-04-03T11:43:56;99294.28;;;8.52;72.97
34482;BME280;20720;48.886;9.388;2023-04-03T11:46:23;99292.81;;;8.90;71.61
34482;BME280;20720;48.886;9.388;2023-04-03T11:52:12;99286.59;;;10.08;67.46
34482;BME280;20720;48.886;9.388;2023-04-03T12:05:47;99278.25;;;7.97;67.65
34482;BME280;20720;48.886;9.388;2023-04-03T12:08:43;99267.59;;;8.73;67.22
34482;BME280;20720;48.886;9.388;2023-04-03T12:16:25;99255.84;;;8.69;68.70
34482;BME280;20720;48.886;9.388;2023-04-03T12:27:05;99265.47;;;8.52;65.99
34482;BME280;20720;48.886;9.388;2023-04-03T12:43:05;99254.19;;;10.47;60.61
34482;BME280;20720;48.886;9.388;2023-04-03T12:45:59;99262.63;;;9.18;62.23
34482;BME280;20720;48.886;9.388;2023-04-03T12:48:29;99257.06;;;10.82;63.12
34482;BME280;20720;48.886;9.388;2023-04-03T12:50:56;99255.00;;;9.55;60.13
34482;BME280;20720;48.886;9.388;2023-04-03T12:53:25;99251.53;;;8.92;65.17
34482;BME280;20720;48.886;9.388;2023-04-03T12:56:18;99245.81;;;8.96;62.67
34482;BME280;20720;48.886;9.388;2023-04-03T12:58:43;99247.66;;;9.89;59.62
34482;BME280;20720;48.886;9.388;2023-04-03T13:03:39;99248.44;;;9.59;62.36
34482;BME280;20720;48.886;9.388;2023-04-03T13:06:05;99239.59;;;11.18;59.92
34482;BME280;20720;48.886;9.388;2023-04-03T13:08:31;99233.25;;;12.43;58.03
34482;BME280;20720;48.886;9.388;2023-04-03T13:11:09;99240.47;;;12.34;59.13
34482;BME280;20720;48.886;9.388;2023-04-03T13:13:36;99239.97;;;10.41;56.85
34482;BME280;20720;48.886;9.388;2023-04-03T13:16:10;99238.47;;;9.85;59.73
34482;BME280;20720;48.886;9.388;2023-04-03T13:18:37;99234.41;;;10.05;59.62
34482;BME280;20720;48.886;9.388;2023-04-03T13:21:10;99240.44;;;8.82;62.03
34482;BME280;20720;48.886;9.388;2023-04-03T13:23:40;99237.69;;;9.46;62.24
34482;BME280;20720;48.886;9.388;2023-04-03T13:26:08;99229.09;;;9.05;61.79
34482;BME280;20720;48.886;9.388;2023-04-03T13:28:34;99226.19;;;9.39;60.86
34482;BME280;20720;48.886;9.388;2023-04-03T13:31:08;99229.91;;;9.06;62.75
34482;BME280;20720;48.886;9.388;2023-04-03T13:33:58;99232.34;;;9.07;61.68
34482;BME280;20720;48.886;9.388;2023-04-03T13:36:39;99233.38;;;8.82;61.58
34482;BME280;20720;48.886;9.388;2023-04-03T13:39:07;99236.66;;;8.36;61.62
34482;BME280;20720;48.886;9.388;2023-04-03T13:41:54;99225.69;;;8.73;60.68
34482;BME280;20720;48.886;9.388;2023-04-03T13:46:50;99225.72;;;9.35;61.34
34482;BME280;20720;48.886;9.388;2023-04-03T13:49:36;99227.47;;;9.51;58.72
34482;BME280;20720;48.886;9.388;2023-04-03T13:54:47;99232.56;;;10.45;57.38
34482;BME280;20720;48.886;9.388;2023-04-03T13:57:17;99215.22;;;11.68;55.29
34482;BME280;20720;48.886;9.388;2023-04-03T13:59:42;99227.34;;;11.11;54.68
34482;BME280;20720;48.886;9.388;2023-04-03T14:04:47;99226.16;;;8.84;59.66
34482;BME280;20720;48.886;9.388;2023-04-03T14:07:14;99227.78;;;8.21;60.29
34482;BME280;20720;48.886;9.388;2023-04-03T14:09:39;99227.78;;;9.56;57.87
34482;BME280;20720;48.886;9.388;2023-04-03T14:12:08;99230.81;;;9.76;57.45
34482;BME280;20720;48.886;9.388;2023-04-03T14:14:37;99225.25;;;10.09;55.97
34482;BME280;20720;48.886;9.388;2023-04-03T14:17:18;99231.38;;;9.63;55.28
34482;BME280;20720;48.886;9.388;2023-04-03T14:19:44;99226.66;;;8.88;57.23
34482;BME280;20720;48.886;9.388;2023-04-03T14:22:17;99226.72;;;10.04;58.41
34482;BME280;20720;48.886;9.388;2023-04-03T14:24:44;99215.84;;;8.99;57.80
34482;BME280;20720;48.886;9.388;2023-04-03T14:27:23;99212.50;;;9.21;56.91
34482;BME280;20720;48.886;9.388;2023-04-03T14:29:50;99216.63;;;10.98;55.52
34482;BME280;20720;48.886;9.388;2023-04-03T14:32:17;99224.31;;;9.17;55.56
34482;BME280;20720;48.886;9.388;2023-04-03T14:34:44;99217.63;;;9.53;53.55
34482;BME280;20720;48.886;9.388;2023-04-03T14:37:16;99217.97;;;9.50;56.83
34482;BME280;20720;48.886;9.388;2023-04-03T14:39:42;99219.00;;;9.41;55.07
34482;BME280;20720;48.886;9.388;2023-04-03T14:42:17;99222.09;;;8.82;57.09
34482;BME280;20720;48.886;9.388;2023-04-03T14:44:42;99215.41;;;9.34;55.10
34482;BME280;20720;48.886;9.388;2023-04-03T14:47:14;99221.94;;;8.75;55.51
34482;BME280;20720;48.886;9.388;2023-04-03T14:49:40;99222.34;;;9.11;56.78
34482;BME280;20720;48.886;9.388;2023-04-03T14:52:16;99215.44;;;9.26;55.46
34482;BME280;20720;48.886;9.388;2023-04-03T14:54:43;99207.47;;;9.11;55.09
34482;BME280;20720;48.886;9.388;2023-04-03T14:57:08;99209.31;;;8.79;56.09
34482;BME280;20720;48.886;9.388;2023-04-03T14:59:36;99201.09;;;9.06;57.19
34482;BME280;20720;48.886;9.388;2023-04-03T15:02:01;99201.16;;;8.74;55.44
34482;BME280;20720;48.886;9.388;2023-04-03T15:04:28;99200.91;;;9.54;55.37
34482;BME280;20720;48.886;9.388;2023-04-03T15:06:53;99198.25;;;9.62;53.59